createdAt,value
2019-06-01T00:00:58.954Z,7.30
2019-06-01T00:05:52.932Z,6.10
2019-06-01T00:10:47.752Z,6.65
2019-06-01T00:15:41.977Z,6.80
2019-06-01T00:20:36.084Z,6.92
2019-06-01T00:25:30.397Z,7.67
2019-06-01T00:30:27.361Z,6.85
2019-06-01T00:35:20.547Z,7.35
2019-06-01T00:40:14.724Z,6.72
2019-06-01T00:45:09.098Z,7.03
2019-06-01T00:50:06.382Z,7.65
2019-06-01T00:55:00.466Z,7.37
2019-06-01T00:59:55.094Z,7.80
2019-06-01T01:05:09.807Z,7.33
2019-06-01T01:10:04.776Z,7.70
2019-06-01T01:14:58.909Z,7.90
2019-06-01T01:19:53.991Z,7.80
2019-06-01T01:24:48.334Z,8.03
2019-06-01T01:29:42.560Z,7.92
2019-06-01T01:34:36.533Z,8.05
2019-06-01T01:39:30.584Z,7.72
2019-06-01T01:44:24.544Z,8.13
2019-06-01T01:49:18.624Z,7.62
2019-06-01T01:54:12.589Z,7.87
2019-06-01T01:59:06.740Z,8.00
2019-06-01T02:04:00.909Z,7.62
2019-06-01T02:08:55.189Z,8.48
2019-06-01T02:13:49.254Z,8.33
2019-06-01T02:18:43.216Z,7.67
2019-06-01T02:23:37.176Z,8.25
2019-06-01T02:28:31.165Z,8.27
2019-06-01T02:33:25.126Z,8.30
2019-06-01T02:38:19.164Z,8.83
2019-06-01T02:43:13.122Z,8.60
2019-06-01T02:48:07.166Z,8.67
2019-06-01T02:53:01.589Z,9.00
2019-06-01T02:57:56.009Z,8.97
2019-06-01T03:02:50.123Z,8.57
2019-06-01T03:07:45.700Z,8.70
2019-06-01T03:12:43.972Z,9.70
2019-06-01T03:17:40.460Z,9.70
2019-06-01T03:22:38.438Z,9.77
2019-06-01T03:27:34.709Z,10.03
2019-06-01T03:32:36.344Z,10.60
2019-06-01T03:37:24.732Z,10.50
2019-06-01T03:42:19.037Z,9.90
2019-06-01T03:47:12.991Z,9.47
2019-06-01T03:52:07.372Z,10.47
2019-06-01T03:57:01.413Z,9.90
2019-06-01T04:01:55.446Z,9.80
2019-06-01T04:06:49.417Z,8.98
2019-06-01T04:11:43.361Z,10.35
2019-06-01T04:16:39.273Z,9.98
2019-06-01T04:21:33.243Z,10.20
2019-06-01T04:26:27.205Z,9.55
2019-06-01T04:31:21.305Z,9.90
2019-06-01T04:36:15.267Z,9.83
2019-06-01T04:41:09.759Z,10.40
2019-06-01T04:46:04.045Z,10.10
2019-06-01T04:50:58.090Z,9.70
2019-06-01T04:55:52.081Z,9.10
2019-06-01T05:00:46.648Z,10.23
2019-06-01T05:05:40.602Z,9.68
2019-06-01T05:10:37.007Z,9.90
2019-06-01T05:15:31.089Z,9.78
2019-06-01T05:20:25.045Z,9.30
2019-06-01T05:25:19.177Z,10.33
2019-06-01T05:30:13.870Z,9.95
2019-06-01T05:35:08.169Z,10.30
2019-06-01T05:40:04.925Z,10.07
2019-06-01T05:44:58.945Z,9.78
2019-06-01T05:49:52.974Z,9.85
2019-06-01T05:54:46.936Z,10.40
2019-06-01T05:59:41.242Z,10.80
2019-06-01T06:04:35.195Z,10.03
2019-06-01T06:09:29.140Z,10.03
2019-06-01T06:14:23.115Z,9.98
2019-06-01T06:19:20.511Z,10.90
2019-06-01T06:24:12.930Z,10.05
2019-06-01T06:29:06.896Z,10.03
2019-06-01T06:34:00.875Z,10.25
2019-06-01T06:38:57.851Z,10.60
2019-06-01T06:44:01.056Z,10.20
2019-06-01T06:48:55.499Z,9.73
2019-06-01T06:53:49.576Z,9.63
2019-06-01T06:58:43.566Z,9.93
2019-06-01T07:03:37.540Z,9.63
2019-06-01T07:08:31.501Z,9.03
2019-06-01T07:13:25.506Z,9.80
2019-06-01T07:18:19.469Z,9.93
2019-06-01T07:23:13.433Z,9.33
2019-06-01T07:28:07.457Z,9.70
2019-06-01T07:33:01.388Z,10.32
2019-06-01T07:37:55.456Z,11.25
2019-06-01T07:42:49.434Z,10.18
2019-06-01T07:47:43.432Z,10.08
2019-06-01T07:52:37.391Z,10.05
2019-06-01T07:57:31.766Z,10.05
2019-06-01T08:02:27.922Z,9.23
2019-06-01T08:07:23.300Z,8.20
2019-06-01T08:12:17.620Z,8.53
2019-06-01T08:17:11.613Z,6.58
2019-06-01T08:22:05.723Z,5.75
2019-06-01T08:26:59.741Z,6.65
2019-06-01T08:31:55.898Z,8.50
2019-06-01T08:36:49.680Z,6.95
2019-06-01T08:41:43.794Z,8.00
2019-06-01T08:46:37.802Z,7.55
2019-06-01T08:51:32.154Z,8.30
2019-06-01T08:56:26.275Z,7.50
2019-06-01T09:01:20.240Z,9.20
2019-06-01T09:06:14.232Z,7.08
2019-06-01T09:11:08.277Z,7.37
2019-06-01T09:16:02.551Z,7.70
2019-06-01T09:20:56.834Z,7.40
2019-06-01T09:25:50.935Z,6.00
2019-06-01T09:30:44.934Z,5.80
2019-06-01T09:35:52.609Z,4.40
2019-06-01T09:40:35.196Z,4.67
2019-06-01T09:45:29.900Z,5.53
2019-06-01T09:50:24.056Z,7.90
2019-06-01T09:55:19.941Z,6.40
2019-06-01T10:00:14.442Z,7.62
2019-06-01T10:05:10.772Z,6.37
2019-06-01T10:10:05.183Z,6.20
2019-06-01T10:14:59.314Z,6.45
2019-06-01T10:19:53.379Z,5.78
2019-06-01T10:24:47.483Z,6.65
2019-06-01T10:29:42.912Z,5.97
2019-06-01T10:34:37.792Z,5.25
2019-06-01T10:39:33.013Z,5.20
2019-06-01T10:44:27.140Z,4.47
2019-06-01T10:49:21.119Z,5.20
2019-06-01T10:54:15.119Z,4.80
2019-06-01T10:59:09.350Z,5.70
2019-06-01T11:04:03.748Z,4.58
2019-06-01T11:08:57.728Z,5.22
2019-06-01T11:13:51.699Z,5.75
2019-06-01T11:18:45.855Z,5.50
2019-06-01T11:23:43.665Z,4.42
2019-06-01T11:28:36.191Z,4.42
2019-06-01T11:33:30.354Z,3.80
2019-06-01T11:38:24.418Z,3.77
2019-06-01T11:43:18.611Z,3.65
2019-06-01T11:48:12.597Z,3.67
2019-06-01T11:53:06.540Z,3.45
2019-06-01T11:58:00.792Z,4.47
2019-06-01T12:02:54.870Z,4.05
2019-06-01T12:07:48.849Z,3.95
2019-06-01T12:12:44.210Z,3.58
2019-06-01T12:17:38.830Z,3.33
2019-06-01T12:22:32.940Z,4.12
2019-06-01T12:27:26.875Z,4.65
2019-06-01T12:32:20.862Z,3.60
2019-06-01T12:37:14.823Z,3.80
2019-06-01T12:42:08.913Z,3.58
2019-06-01T12:47:03.207Z,3.02
2019-06-01T12:51:57.307Z,3.08
2019-06-01T12:56:51.499Z,2.87
2019-06-01T13:01:45.604Z,2.70
2019-06-01T13:06:40.750Z,2.83
2019-06-01T13:11:35.362Z,2.75
2019-06-01T13:16:29.479Z,2.87
2019-06-01T13:21:23.429Z,2.90
2019-06-01T13:26:17.411Z,2.92
2019-06-01T13:31:11.379Z,2.80
2019-06-01T13:36:05.513Z,3.37
2019-06-01T13:40:59.576Z,3.15
2019-06-01T13:45:53.663Z,2.80
2019-06-01T13:50:47.912Z,3.15
2019-06-01T13:55:41.862Z,2.80
2019-06-01T14:00:35.955Z,2.90
2019-06-01T14:05:30.034Z,2.77
2019-06-01T14:10:24.038Z,2.75
2019-06-01T14:15:18.064Z,2.45
2019-06-01T14:20:12.261Z,2.60
2019-06-01T14:25:13.709Z,2.90
2019-06-01T14:30:06.021Z,2.70
2019-06-01T14:35:00.125Z,2.90
2019-06-01T14:39:54.960Z,2.70
2019-06-01T14:44:49.332Z,2.47
2019-06-01T14:49:43.392Z,2.27
2019-06-01T14:54:37.359Z,2.50
2019-06-01T14:59:31.469Z,2.20
2019-06-01T15:04:25.428Z,2.55
2019-06-01T15:09:20.064Z,2.20
2019-06-01T15:14:14.328Z,1.98
2019-06-01T15:19:08.297Z,2.00
2019-06-01T15:24:02.743Z,1.98
2019-06-01T15:28:57.115Z,1.70
2019-06-01T15:33:51.336Z,1.90
2019-06-01T15:38:45.302Z,1.50
2019-06-01T15:43:39.290Z,1.60
2019-06-01T15:48:33.264Z,1.47
2019-06-01T15:53:27.239Z,1.70
2019-06-01T15:58:21.263Z,1.80
2019-06-01T16:03:15.220Z,1.60
2019-06-01T16:08:09.230Z,1.45
2019-06-01T16:13:04.456Z,1.55
2019-06-01T16:17:59.998Z,1.60
2019-06-01T16:22:54.243Z,1.82
2019-06-01T16:27:48.243Z,2.10
2019-06-01T16:32:42.812Z,2.10
2019-06-01T16:37:36.801Z,2.10
2019-06-01T16:42:30.825Z,2.20
2019-06-01T16:47:24.968Z,2.83
2019-06-01T16:52:18.938Z,2.75
2019-06-01T16:57:12.939Z,2.20
2019-06-01T17:02:07.958Z,2.60
2019-06-01T17:07:05.672Z,2.70
2019-06-01T17:11:58.750Z,3.27
2019-06-01T17:16:52.791Z,4.28
2019-06-01T17:21:47.195Z,5.53
2019-06-01T17:26:41.200Z,3.70
2019-06-01T17:31:35.182Z,2.70
2019-06-01T17:36:29.287Z,2.50
2019-06-01T17:41:23.375Z,2.67
2019-06-01T17:46:17.461Z,3.08
2019-06-01T17:51:12.553Z,2.80
2019-06-01T17:56:08.076Z,2.58
2019-06-01T18:01:04.100Z,2.60
2019-06-01T18:05:58.582Z,3.20
2019-06-01T18:10:54.921Z,2.75
2019-06-01T18:15:50.155Z,2.70
2019-06-01T18:20:44.450Z,2.60
2019-06-01T18:25:38.503Z,2.62
2019-06-01T18:30:32.811Z,3.17
2019-06-01T18:35:26.775Z,3.08
2019-06-01T18:40:22.761Z,3.65
2019-06-01T18:45:17.541Z,3.92
2019-06-01T18:50:14.724Z,3.58
2019-06-01T18:55:08.532Z,3.83
2019-06-01T19:00:09.227Z,4.03
2019-06-01T19:05:02.961Z,3.90
2019-06-01T19:09:57.179Z,4.15
2019-06-01T19:14:51.262Z,4.65
2019-06-01T19:19:45.236Z,4.75
2019-06-01T19:24:39.663Z,4.30
2019-06-01T19:29:33.669Z,4.67
2019-06-01T19:34:27.670Z,5.20
2019-06-01T19:39:21.763Z,5.08
2019-06-01T19:44:15.926Z,5.83
2019-06-01T19:49:10.837Z,5.22
2019-06-01T19:54:05.210Z,5.90
2019-06-01T19:58:59.607Z,5.78
2019-06-01T20:03:53.583Z,5.37
2019-06-01T20:08:47.567Z,5.72
2019-06-01T20:13:41.780Z,6.40
2019-06-01T20:18:35.842Z,5.92
2019-06-01T20:23:29.802Z,5.60
2019-06-01T20:28:23.786Z,6.00
2019-06-01T20:33:18.288Z,9.28
2019-06-01T20:38:12.671Z,10.32
2019-06-01T20:43:07.312Z,10.05
2019-06-01T20:48:01.604Z,7.72
2019-06-01T20:52:55.619Z,7.17
2019-06-01T20:57:49.857Z,6.70
2019-06-01T21:02:43.848Z,9.58
2019-06-01T21:07:38.110Z,8.93
2019-06-01T21:12:44.795Z,7.95
2019-06-01T21:17:28.326Z,6.83
2019-06-01T21:22:22.755Z,6.03
2019-06-01T21:27:16.744Z,5.75
2019-06-01T21:32:10.875Z,6.25
2019-06-01T21:37:04.837Z,6.37
2019-06-01T21:41:58.799Z,7.10
2019-06-01T21:46:52.769Z,6.97
2019-06-01T21:51:47.273Z,6.60
2019-06-01T21:56:41.319Z,6.10
2019-06-01T22:01:35.413Z,6.62
2019-06-01T22:06:29.888Z,6.30
2019-06-01T22:11:25.433Z,6.58
2019-06-01T22:16:19.548Z,6.65
2019-06-01T22:21:13.598Z,6.50
2019-06-01T22:26:07.559Z,6.80
2019-06-01T22:31:01.643Z,6.75
2019-06-01T22:35:55.631Z,7.78
2019-06-01T22:40:49.613Z,6.75
2019-06-01T22:45:43.789Z,6.30
2019-06-01T22:50:37.750Z,6.17
2019-06-01T22:55:32.565Z,6.42
2019-06-01T23:00:27.856Z,7.45
2019-06-01T23:05:23.021Z,7.20
2019-06-01T23:10:17.301Z,6.55
2019-06-01T23:15:11.894Z,6.28
2019-06-01T23:20:06.387Z,6.10
2019-06-01T23:25:00.463Z,6.65
2019-06-01T23:29:54.426Z,6.35
2019-06-01T23:34:48.399Z,7.20
2019-06-01T23:39:42.427Z,6.90
2019-06-01T23:44:36.507Z,6.53
2019-06-01T23:49:31.347Z,6.05
2019-06-01T23:54:25.592Z,6.47
2019-06-01T23:59:19.719Z,6.28
